Time;durP1;ratioP1;P1;durP2;ratioP2;P2;SDS_P1;SDS_P2;PMS_P1;PMS_P2;Temp;Humidity;BMP_temperature;BMP_pressure;BME280_temperature;BME280_humidity;BME280_pressure;Samples;Min_cycle;Max_cycle;Signal;HPM_P1;HPM_P2
2021/05/23 00:09:26;;;;;;;4.53;3.00;;;;;;;8.80;100.00;99832.94;20769156;28;20227;-60
2021/05/23 00:19:26;;;;;;;5.33;3.47;;;;;;;8.95;100.00;99837.22;20797648;28;20224;-61
2021/05/23 00:29:27;;;;;;;6.10;3.70;;;;;;;8.98;100.00;99837.03;20781989;28;20221;-61
2021/05/23 00:39:27;;;;;;;4.57;3.40;;;;;;;8.96;100.00;99843.41;20813244;28;20455;-60
2021/05/23 00:59:23;;;;;;;4.47;2.90;;;;;;;8.92;100.00;99850.75;21037727;27;20580;-61
2021/05/23 01:09:24;;;;;;;3.77;2.70;;;;;;;8.81;100.00;99849.75;21037876;27;20744;-61
2021/05/23 01:19:33;;;;;;;2.83;2.30;;;;;;;8.71;100.00;99873.41;21017667;27;20219;-60
2021/05/23 01:29:34;;;;;;;4.03;2.87;;;;;;;8.67;100.00;99863.94;21038137;27;20259;-60
2021/05/23 01:49:30;;;;;;;3.10;2.40;;;;;;;8.85;100.00;99857.41;20882862;27;20576;-60
2021/05/23 01:59:31;;;;;;;3.28;2.33;;;;;;;9.35;100.00;99859.41;20855948;28;20338;-61
2021/05/23 02:09:31;;;;;;;2.70;2.10;;;;;;;9.78;100.00;99885.00;20865941;28;20229;-60
2021/05/23 02:19:32;;;;;;;2.72;2.20;;;;;;;9.82;100.00;99891.81;20863219;28;20999;-61
2021/05/23 02:29:33;;;;;;;2.07;1.70;;;;;;;9.81;100.00;99906.09;20858518;28;20218;-62
2021/05/23 02:39:33;;;;;;;3.20;2.00;;;;;;;9.92;100.00;99909.72;20869566;28;21091;-60
2021/05/23 02:49:37;;;;;;;3.33;2.30;;;;;;;10.34;100.00;99911.28;20849643;28;20223;-61
2021/05/23 02:59:38;;;;;;;3.00;1.90;;;;;;;10.60;98.13;99911.28;20820148;28;20220;-59
2021/05/23 03:09:38;;;;;;;2.60;2.00;;;;;;;10.78;96.63;99926.81;20792865;28;20949;-63
2021/05/23 03:19:39;;;;;;;2.80;1.90;;;;;;;10.91;95.02;99918.78;20812339;28;20226;-61
2021/05/23 03:29:40;;;;;;;1.80;1.37;;;;;;;10.91;94.77;99934.81;20795245;28;20211;-63
2021/05/23 03:39:40;;;;;;;2.77;2.17;;;;;;;11.31;93.58;99931.91;20806527;28;20726;-60
2021/05/23 03:49:40;;;;;;;2.10;1.90;;;;;;;11.47;93.04;99929.84;20817048;28;20309;-64
2021/05/23 03:59:41;;;;;;;2.37;1.70;;;;;;;11.58;91.64;99937.91;20803647;28;20212;-62
2021/05/23 04:09:41;;;;;;;2.90;1.93;;;;;;;11.86;91.23;99942.91;20821780;28;20210;-60
2021/05/23 04:19:42;;;;;;;2.37;1.90;;;;;;;12.24;89.13;99936.44;20794119;28;20587;-60
2021/05/23 04:29:42;;;;;;;1.67;1.57;;;;;;;12.43;88.29;99958.16;20806954;28;20470;-63
2021/05/23 04:39:43;;;;;;;1.70;1.60;;;;;;;13.87;91.94;99952.75;20785254;28;20692;-60
2021/05/23 04:49:44;;;;;;;2.90;2.10;;;;;;;15.12;79.19;99980.38;20805537;28;20216;-61
2021/05/23 04:59:45;;;;;;;2.90;2.07;;;;;;;14.75;77.16;99978.25;20787267;28;20217;-61
2021/05/23 05:09:46;;;;;;;2.10;1.83;;;;;;;14.77;76.63;99986.16;20800145;28;20247;-60
2021/05/23 05:19:47;;;;;;;2.20;1.60;;;;;;;14.60;76.41;99979.59;20793425;28;20696;-62
2021/05/23 05:29:47;;;;;;;1.87;1.60;;;;;;;14.33;75.45;99989.97;20792007;28;20333;-60
2021/05/23 05:39:48;;;;;;;2.97;1.63;;;;;;;14.23;75.89;100005.16;20785068;28;20231;-61
2021/05/23 05:49:48;;;;;;;2.37;1.70;;;;;;;14.40;76.28;100000.06;20743239;28;20231;-61
2021/05/23 05:59:49;;;;;;;2.97;1.67;;;;;;;14.48;75.60;100012.88;20719977;28;20235;-60
2021/05/23 06:09:49;;;;;;;1.80;1.43;;;;;;;14.56;76.72;100014.88;20698651;28;20308;-60
2021/05/23 06:19:50;;;;;;;1.97;1.70;;;;;;;14.70;74.24;100014.56;20718433;28;20455;-60
2021/05/23 06:29:50;;;;;;;2.80;1.60;;;;;;;14.95;74.99;100015.97;20704512;28;20750;-60
2021/05/23 06:39:51;;;;;;;2.67;1.83;;;;;;;15.50;71.45;100039.69;20730078;28;20929;-61
2021/05/23 06:49:51;;;;;;;2.73;1.70;;;;;;;16.27;71.11;100032.75;20721128;28;20274;-61
2021/05/23 06:59:52;;;;;;;2.67;1.50;;;;;;;16.76;67.24;100043.38;20727169;28;20481;-60
2021/05/23 07:09:53;;;;;;;1.60;1.50;;;;;;;16.64;66.32;100009.50;20743123;28;20227;-59
2021/05/23 07:19:54;;;;;;;3.17;1.70;;;;;;;16.48;69.25;100046.91;20742655;28;20621;-60
2021/05/23 07:29:55;;;;;;;1.80;1.27;;;;;;;17.09;65.18;100057.31;20741892;28;20240;-61
2021/05/23 07:39:55;;;;;;;1.57;1.43;;;;;;;17.30;67.40;100076.84;20740242;28;20233;-64
2021/05/23 07:49:56;;;;;;;1.17;0.90;;;;;;;17.45;63.82;100091.56;20740028;28;20217;-60
2021/05/23 07:59:56;;;;;;;1.23;1.13;;;;;;;18.09;61.55;100112.28;20739214;28;20282;-61
2021/05/23 08:09:57;;;;;;;1.00;0.80;;;;;;;18.74;59.48;100110.25;20737970;28;20879;-60
2021/05/23 08:19:58;;;;;;;1.20;0.80;;;;;;;18.47;60.27;100121.13;20737575;28;20895;-63
2021/05/23 08:29:59;;;;;;;1.13;0.90;;;;;;;17.97;61.80;100113.50;20800955;28;20466;-65
2021/05/23 08:39:59;;;;;;;2.47;1.00;;;;;;;17.88;58.26;100108.97;20817261;28;20348;-60
2021/05/23 08:50:00;;;;;;;3.63;0.80;;;;;;;17.99;58.76;100095.31;20814370;28;20240;-59
2021/05/23 09:00:00;;;;;;;1.77;0.77;;;;;;;17.49;57.78;100119.09;20810479;28;20533;-59
2021/05/23 09:10:01;;;;;;;3.87;1.03;;;;;;;17.28;57.81;100128.22;20814988;28;20677;-61
2021/05/23 09:20:02;;;;;;;1.80;0.90;;;;;;;17.54;59.86;100133.81;20809054;28;20223;-65
2021/05/23 09:30:19;;;;;;;0.97;0.60;;;;;;;17.80;59.53;100144.84;20812397;28;21128;-61
2021/05/23 09:40:23;;;;;;;0.93;0.80;;;;;;;18.04;57.56;100138.88;20812128;28;20243;-62
2021/05/23 09:50:41;;;;;;;1.70;1.00;;;;;;;18.89;56.90;100146.56;20812513;28;20220;-64
2021/05/23 10:00:41;;;;;;;1.83;0.80;;;;;;;18.82;55.62;100152.75;20810982;28;20254;-58
2021/05/23 10:20:37;;;;;;;2.20;1.20;;;;;;;19.23;56.59;100157.47;20891448;27;20546;-60
2021/05/23 10:30:49;;;;;;;1.20;0.90;;;;;;;18.57;55.31;100174.09;20884146;28;20550;-65
2021/05/23 10:41:01;;;;;;;1.67;1.00;;;;;;;18.73;54.62;100159.06;20883208;28;20688;-59
2021/05/23 10:51:16;;;;;;;3.13;0.70;;;;;;;19.06;53.77;100175.44;20881889;28;20774;-59
2021/05/23 11:01:18;;;;;;;2.07;1.00;;;;;;;19.54;52.34;100174.13;20877072;28;20312;-62
2021/05/23 11:11:20;;;;;;;1.70;0.90;;;;;;;19.72;52.08;100190.28;20880223;28;20236;-63
2021/05/23 11:21:20;;;;;;;0.97;0.73;;;;;;;19.66;52.59;100164.72;20877686;28;20236;-60
2021/05/23 11:31:21;;;;;;;0.57;0.57;;;;;;;19.76;52.37;100180.84;20821006;28;20228;-61
2021/05/23 11:41:39;;;;;;;1.33;0.80;;;;;;;19.42;52.23;100189.75;20823296;28;20217;-60
2021/05/23 11:51:39;;;;;;;1.63;0.60;;;;;;;19.51;51.92;100190.69;20822275;28;20910;-60
2021/05/23 12:01:47;;;;;;;0.50;0.50;;;;;;;19.59;53.30;100185.31;20822669;28;20367;-61
2021/05/23 12:11:56;;;;;;;0.70;0.70;;;;;;;19.47;50.67;100181.13;20820170;28;20698;-61
2021/05/23 12:21:56;;;;;;;1.90;0.87;;;;;;;19.13;50.81;100172.09;20820565;28;20213;-61
2021/05/23 12:31:57;;;;;;;1.33;0.70;;;;;;;19.52;52.14;100173.44;20818856;28;20227;-60
2021/05/23 12:41:57;;;;;;;0.80;0.70;;;;;;;20.06;50.48;100188.44;20818276;28;20632;-60
2021/05/23 12:51:58;;;;;;;0.60;0.60;;;;;;;20.83;50.22;100197.34;20817094;28;20228;-61
2021/05/23 13:02:04;;;;;;;1.00;0.60;;;;;;;21.08;47.19;100199.06;20818027;28;20216;-63
2021/05/23 13:12:10;;;;;;;0.90;0.90;;;;;;;19.88;50.83;100205.78;20817267;28;20235;-61
2021/05/23 13:22:10;;;;;;;1.13;0.63;;;;;;;18.42;55.12;100242.31;20816984;28;20220;-62
2021/05/23 13:32:11;;;;;;;0.80;0.80;;;;;;;19.34;57.60;100215.88;20814640;28;20370;-63
2021/05/23 13:42:12;;;;;;;0.60;0.60;;;;;;;20.34;53.91;100224.28;20814499;28;20231;-64
2021/05/23 13:52:15;;;;;;;0.47;0.47;;;;;;;20.99;52.52;100224.50;20814855;28;20702;-62
2021/05/23 14:02:15;;;;;;;0.50;0.50;;;;;;;20.87;51.95;100231.25;20814426;28;20251;-61
2021/05/23 14:12:16;;;;;;;2.47;1.20;;;;;;;20.63;52.94;100233.91;20812833;28;20258;-61
2021/05/23 14:22:16;;;;;;;0.43;0.43;;;;;;;20.89;51.00;100234.63;20813444;28;20224;-64
2021/05/23 14:32:17;;;;;;;1.07;0.70;;;;;;;20.82;51.58;100244.47;20813414;28;20288;-62
2021/05/23 14:42:18;;;;;;;0.80;0.80;;;;;;;20.64;50.39;100250.03;20812819;28;20243;-66
2021/05/23 14:52:20;;;;;;;0.73;0.70;;;;;;;20.63;51.68;100250.19;20812724;28;20631;-64
2021/05/23 15:02:20;;;;;;;0.80;0.60;;;;;;;21.25;51.70;100258.81;20819849;28;20224;-61
2021/05/23 15:12:21;;;;;;;0.80;0.60;;;;;;;20.83;51.05;100273.28;20826868;28;20390;-61
2021/05/23 15:22:21;;;;;;;0.97;0.70;;;;;;;20.58;51.57;100264.22;20826455;28;20235;-61
2021/05/23 15:32:22;;;;;;;0.50;0.50;;;;;;;20.28;51.61;100268.31;20825730;28;20234;-61
2021/05/23 15:42:22;;;;;;;0.93;0.70;;;;;;;20.17;52.36;100270.44;20823527;28;20223;-64
2021/05/23 16:32:10;;;;;;;1.63;0.60;;;;;;;16.97;59.29;100317.28;20968596;27;879702;-62
2021/05/23 17:51:41;;;;;;;1.83;0.80;;;;;;;17.39;59.74;100356.50;20890692;27;20571;-61
2021/05/23 18:31:36;;;;;;;1.53;1.10;;;;;;;14.92;72.11;100405.84;20969466;27;20575;-60
2021/05/23 18:51:32;;;;;;;1.03;0.93;;;;;;;13.95;74.41;100438.53;20856702;27;20991;-60
2021/05/23 19:11:29;;;;;;;1.17;0.97;;;;;;;13.01;79.11;100472.38;20874599;27;20572;-60
2021/05/23 20:01:14;;;;;;;2.07;1.83;;;;;;;11.53;95.71;100530.66;20979720;27;20325;-60
2021/05/23 21:00:56;;;;;;;2.60;2.07;;;;;;;11.80;89.67;100555.63;20886337;27;20536;-59
2021/05/23 22:10:42;;;;;;;2.30;1.87;;;;;;;9.96;100.00;100656.78;20890107;27;20543;-58
2021/05/23 22:20:43;;;;;;;2.30;1.97;;;;;;;9.89;100.00;100672.25;20884237;28;20241;-60
2021/05/23 22:40:40;;;;;;;1.87;1.77;;;;;;;9.46;100.00;100700.38;20889306;27;20579;-58
2021/05/23 22:50:44;;;;;;;1.93;1.80;;;;;;;9.35;100.00;100721.41;20883392;28;20286;-57
